createdAt,value
2023-03-10T00:00:21.675Z,1.88
2023-03-10T00:03:23.165Z,4.78
2023-03-10T00:06:26.556Z,3.13
2023-03-10T00:09:28.027Z,2.65
2023-03-10T00:12:29.598Z,2.97
2023-03-10T00:15:31.741Z,3.33
2023-03-10T00:18:33.651Z,3.55
2023-03-10T00:21:35.090Z,4.15
2023-03-10T00:24:36.548Z,2.13
2023-03-10T00:27:38.716Z,3.92
2023-03-10T00:30:40.240Z,4.22
2023-03-10T00:33:44.406Z,2.67
2023-03-10T00:36:45.903Z,2.25
2023-03-10T00:39:51.262Z,2.42
2023-03-10T00:42:52.793Z,1.88
2023-03-10T00:45:54.588Z,1.58
2023-03-10T00:48:56.612Z,1.70
2023-03-10T00:51:58.138Z,2.63
2023-03-10T00:54:59.760Z,3.50
2023-03-10T00:58:01.244Z,3.47
2023-03-10T01:01:04.825Z,2.72
2023-03-10T01:04:13.790Z,3.97
2023-03-10T01:07:15.457Z,2.97
2023-03-10T01:10:18.135Z,1.23
2023-03-10T01:13:20.121Z,2.22
2023-03-10T01:16:21.720Z,1.92
2023-03-10T01:19:23.181Z,0.98
2023-03-10T01:22:24.749Z,0.85
2023-03-10T01:25:27.067Z,2.25
2023-03-10T01:28:28.542Z,1.65
2023-03-10T01:31:31.181Z,2.58
2023-03-10T01:34:33.023Z,1.63
2023-03-10T01:37:34.601Z,2.25
2023-03-10T01:40:37.770Z,3.80
2023-03-10T01:43:44.215Z,3.72
2023-03-10T01:46:48.654Z,5.20
2023-03-10T01:50:05.046Z,4.75
2023-03-10T01:53:07.584Z,3.10
2023-03-10T01:56:09.232Z,4.97
2023-03-10T01:59:11.306Z,5.57
2023-03-10T02:02:13.357Z,6.82
2023-03-10T02:05:15.930Z,4.50
2023-03-10T02:08:18.385Z,4.28
2023-03-10T02:11:20.670Z,3.03
2023-03-10T02:14:23.533Z,4.18
2023-03-10T02:17:27.286Z,4.13
2023-03-10T02:20:50.079Z,7.23
2023-03-10T02:24:09.281Z,8.35
2023-03-10T02:27:44.067Z,1.85
2023-03-10T02:30:49.712Z,3.70
2023-03-10T02:33:51.829Z,4.55
2023-03-10T02:36:53.706Z,5.72
2023-03-10T02:39:55.396Z,1.77
2023-03-10T02:42:57.945Z,6.28
2023-03-10T02:46:02.782Z,2.58
2023-03-10T02:49:07.235Z,4.22
2023-03-10T02:52:40.572Z,5.90
2023-03-10T02:55:42.691Z,6.53
2023-03-10T02:58:44.399Z,3.33
2023-03-10T03:01:45.943Z,3.40
2023-03-10T03:04:47.879Z,3.33
2023-03-10T03:07:49.857Z,6.15
2023-03-10T03:10:53.116Z,5.05
2023-03-10T03:13:54.987Z,5.60
2023-03-10T03:16:57.618Z,4.60
2023-03-10T03:19:59.448Z,5.75
2023-03-10T03:23:01.573Z,4.95
2023-03-10T03:26:03.853Z,4.45
2023-03-10T03:29:06.011Z,5.25
2023-03-10T03:32:10.308Z,3.35
2023-03-10T03:35:16.740Z,3.15
2023-03-10T03:38:18.777Z,4.10
2023-03-10T03:41:21.276Z,3.20
2023-03-10T03:44:23.032Z,3.10
2023-03-10T03:47:25.583Z,4.30
2023-03-10T03:50:27.302Z,3.60
2023-03-10T03:53:33.625Z,3.00
2023-03-10T03:56:35.415Z,5.03
2023-03-10T03:59:37.382Z,1.65
2023-03-10T04:02:40.095Z,3.95
2023-03-10T04:05:44.821Z,1.27
2023-03-10T04:08:50.477Z,1.90
2023-03-10T04:11:53.135Z,3.17
2023-03-10T04:14:55.626Z,4.43
2023-03-10T04:17:57.912Z,3.20
2023-03-10T04:20:59.846Z,3.90
2023-03-10T04:24:02.929Z,3.20
2023-03-10T04:27:09.566Z,1.75
2023-03-10T04:30:13.846Z,1.92
2023-03-10T04:33:19.130Z,4.38
2023-03-10T04:36:22.635Z,3.00
2023-03-10T04:39:28.675Z,2.97
2023-03-10T04:42:30.224Z,2.45
2023-03-10T04:45:31.961Z,3.78
2023-03-10T04:48:34.172Z,3.88
2023-03-10T04:51:35.934Z,1.60
2023-03-10T04:54:37.625Z,2.22
2023-03-10T04:57:39.864Z,4.30
2023-03-10T05:00:56.505Z,2.22
2023-03-10T05:04:05.406Z,2.78
2023-03-10T05:07:08.271Z,2.65
2023-03-10T05:10:13.682Z,3.83
2023-03-10T05:13:15.931Z,2.40
2023-03-10T05:16:20.826Z,3.38
2023-03-10T05:19:23.925Z,3.53
2023-03-10T05:22:26.437Z,2.85
2023-03-10T05:25:28.458Z,4.32
2023-03-10T05:28:30.049Z,1.73
2023-03-10T05:31:32.081Z,4.75
2023-03-10T05:34:39.481Z,2.30
2023-03-10T05:37:43.446Z,2.70
2023-03-10T05:40:45.637Z,3.33
2023-03-10T05:43:47.833Z,3.72
2023-03-10T05:46:51.319Z,2.42
2023-03-10T05:49:54.472Z,3.17
2023-03-10T05:52:56.279Z,1.63
2023-03-10T05:55:58.729Z,1.98
2023-03-10T05:59:00.910Z,2.92
2023-03-10T06:02:05.660Z,3.75
2023-03-10T06:05:11.299Z,2.47
2023-03-10T06:08:13.048Z,1.75
2023-03-10T06:11:14.725Z,3.22
2023-03-10T06:14:16.274Z,2.83
2023-03-10T06:17:19.724Z,3.70
2023-03-10T06:20:21.390Z,4.68
2023-03-10T06:23:24.511Z,3.85
2023-03-10T06:26:26.054Z,4.72
2023-03-10T06:29:27.508Z,4.95
2023-03-10T06:32:29.069Z,4.55
2023-03-10T06:35:31.503Z,4.50
2023-03-10T06:38:33.057Z,2.85
2023-03-10T06:41:37.484Z,5.35
2023-03-10T06:44:42.363Z,2.63
2023-03-10T06:47:44.668Z,4.38
2023-03-10T06:50:49.813Z,2.65
2023-03-10T06:53:51.277Z,2.58
2023-03-10T06:56:52.956Z,3.80
2023-03-10T06:59:55.123Z,3.28
2023-03-10T07:02:56.689Z,1.83
2023-03-10T07:05:59.635Z,4.13
2023-03-10T07:09:01.216Z,2.63
2023-03-10T07:12:02.643Z,2.17
2023-03-10T07:15:04.582Z,1.95
2023-03-10T07:18:06.168Z,2.28
2023-03-10T07:21:13.276Z,2.10
2023-03-10T07:24:15.788Z,2.47
2023-03-10T07:27:17.603Z,1.85
2023-03-10T07:30:19.347Z,1.55
2023-03-10T07:33:21.016Z,4.10
2023-03-10T07:36:23.511Z,3.55
2023-03-10T07:39:25.196Z,2.67
2023-03-10T07:42:26.675Z,3.97
2023-03-10T07:45:30.747Z,4.88
2023-03-10T07:51:34.130Z,10.20
2023-03-10T07:54:35.599Z,10.68
2023-03-10T07:57:37.042Z,6.28
2023-03-10T08:00:38.727Z,5.75
2023-03-10T08:03:40.825Z,9.23
2023-03-10T08:06:42.313Z,5.95
2023-03-10T08:09:49.756Z,6.13
2023-03-10T08:12:51.206Z,8.00
2023-03-10T08:15:52.880Z,9.27
2023-03-10T08:18:54.812Z,4.78
2023-03-10T08:22:02.073Z,6.35
2023-03-10T08:25:03.841Z,6.55
2023-03-10T08:28:05.295Z,4.97
2023-03-10T08:31:09.858Z,4.47
2023-03-10T08:34:11.479Z,5.68
2023-03-10T08:37:12.971Z,4.28
2023-03-10T08:40:16.149Z,4.78
2023-03-10T08:43:17.733Z,3.17
2023-03-10T08:46:20.824Z,6.43
2023-03-10T08:49:22.438Z,6.85
2023-03-10T08:52:24.573Z,7.30
2023-03-10T08:55:26.076Z,8.00
2023-03-10T08:58:27.657Z,6.65
2023-03-10T09:01:35.313Z,7.43
2023-03-10T09:04:36.841Z,8.25
2023-03-10T09:07:38.520Z,7.57
2023-03-10T09:10:41.125Z,11.90
2023-03-10T09:13:42.825Z,7.85
2023-03-10T09:16:45.052Z,10.23
2023-03-10T09:19:46.876Z,8.77
2023-03-10T09:22:48.463Z,8.13
2023-03-10T09:25:50.065Z,5.78
2023-03-10T09:28:51.524Z,5.13
2023-03-10T09:31:53.236Z,5.53
2023-03-10T09:34:55.019Z,6.00
2023-03-10T09:37:56.549Z,7.28
2023-03-10T09:41:37.082Z,5.20
2023-03-10T09:44:46.355Z,4.13
2023-03-10T09:47:53.159Z,4.45
2023-03-10T09:50:56.603Z,5.60
2023-03-10T09:54:16.858Z,3.05
2023-03-10T09:57:21.990Z,4.22
2023-03-10T10:00:44.804Z,2.50
2023-03-10T10:03:53.107Z,5.20
2023-03-10T10:06:57.332Z,5.38
2023-03-10T10:10:06.006Z,3.78
2023-03-10T10:13:15.870Z,6.45
2023-03-10T10:16:42.352Z,5.10
2023-03-10T10:19:47.813Z,4.10
2023-03-10T10:22:49.655Z,6.10
2023-03-10T10:25:51.551Z,6.18
2023-03-10T10:29:01.280Z,5.57
2023-03-10T10:32:02.813Z,2.75
2023-03-10T10:35:15.838Z,3.25
2023-03-10T10:38:24.779Z,3.13
2023-03-10T10:41:29.295Z,3.80
2023-03-10T10:44:40.758Z,2.35
2023-03-10T10:47:51.005Z,1.60
2023-03-10T10:50:54.416Z,2.05
2023-03-10T10:54:02.614Z,2.30
2023-03-10T10:57:06.152Z,2.42
2023-03-10T11:00:26.569Z,1.17
2023-03-10T11:03:35.378Z,2.10
2023-03-10T11:06:38.091Z,1.75
2023-03-10T11:09:39.605Z,1.20
2023-03-10T11:12:56.330Z,2.13
2023-03-10T11:16:07.990Z,0.80
2023-03-10T11:19:16.424Z,0.93
2023-03-10T11:22:43.374Z,0.63
2023-03-10T11:26:06.482Z,1.67
2023-03-10T11:29:33.660Z,0.93
2023-03-10T11:32:51.975Z,3.25
2023-03-10T11:36:00.947Z,1.45
2023-03-10T11:39:29.953Z,1.67
2023-03-10T11:42:34.272Z,1.85
2023-03-10T11:45:54.334Z,0.95
2023-03-10T11:49:10.431Z,0.65
2023-03-10T11:52:18.875Z,1.90
2023-03-10T11:55:21.935Z,2.45
2023-03-10T11:58:31.866Z,1.70
2023-03-10T12:01:40.854Z,0.88
2023-03-10T12:04:50.725Z,2.38
2023-03-10T12:07:55.467Z,4.15
2023-03-10T12:11:00.454Z,1.50
2023-03-10T12:14:02.762Z,0.55
2023-03-10T12:17:05.558Z,2.22
2023-03-10T12:20:13.186Z,1.90
2023-03-10T12:23:42.472Z,1.02
2023-03-10T12:26:45.096Z,1.58
2023-03-10T12:29:46.806Z,0.73
2023-03-10T12:32:48.471Z,2.10
2023-03-10T12:35:54.085Z,1.20
2023-03-10T12:39:00.153Z,0.25
2023-03-10T12:42:03.386Z,0.60
2023-03-10T12:45:21.416Z,1.03
2023-03-10T12:48:23.305Z,0.80
2023-03-10T12:51:28.499Z,1.50
2023-03-10T12:54:36.964Z,0.40
2023-03-10T12:58:04.632Z,0.32
2023-03-10T13:01:13.351Z,0.55
2023-03-10T13:04:21.160Z,0.38
2023-03-10T13:07:22.646Z,0.47
2023-03-10T13:10:27.286Z,0.20
2023-03-10T13:13:33.434Z,1.25
2023-03-10T13:16:36.519Z,1.95
2023-03-10T13:19:38.713Z,2.25
2023-03-10T13:22:43.409Z,0.30
2023-03-10T13:25:56.813Z,0.30
2023-03-10T13:29:00.913Z,0.88
2023-03-10T13:32:02.511Z,2.95
2023-03-10T13:35:23.897Z,2.28
2023-03-10T13:38:25.429Z,0.63
2023-03-10T13:41:27.209Z,0.90
2023-03-10T13:44:33.783Z,1.15
2023-03-10T13:47:42.976Z,1.63
2023-03-10T13:50:44.412Z,2.05
2023-03-10T13:53:48.368Z,2.25
2023-03-10T13:59:56.861Z,1.30
2023-03-10T14:02:58.479Z,2.13
2023-03-10T14:05:59.916Z,3.10
2023-03-10T14:09:24.883Z,4.68
2023-03-10T14:12:48.342Z,1.55
2023-03-10T14:15:54.179Z,5.55
2023-03-10T14:18:55.771Z,4.97
2023-03-10T14:22:01.926Z,3.67
2023-03-10T14:25:11.458Z,3.67
2023-03-10T14:31:25.056Z,2.38
2023-03-10T14:34:26.596Z,2.78
2023-03-10T14:37:28.099Z,4.88
2023-03-10T14:40:29.726Z,5.97
2023-03-10T14:43:31.442Z,4.15
2023-03-10T14:46:35.051Z,3.63
2023-03-10T14:49:36.847Z,7.18
2023-03-10T14:52:38.527Z,4.78
2023-03-10T14:55:41.684Z,6.15
2023-03-10T14:58:49.284Z,7.95
2023-03-10T15:01:50.929Z,6.85
2023-03-10T15:04:52.479Z,7.82
2023-03-10T15:07:54.082Z,4.78
2023-03-10T15:10:56.026Z,7.50
2023-03-10T15:13:58.011Z,6.18
2023-03-10T15:16:59.526Z,8.10
2023-03-10T15:20:01.021Z,9.10
2023-03-10T15:23:02.442Z,6.38
2023-03-10T15:26:09.448Z,6.05
2023-03-10T15:29:15.827Z,6.55
2023-03-10T15:32:46.100Z,5.18
2023-03-10T15:35:47.640Z,6.00
2023-03-10T15:38:49.106Z,8.23
2023-03-10T15:41:50.599Z,6.63
2023-03-10T15:44:52.161Z,12.40
2023-03-10T15:47:53.696Z,7.60
2023-03-10T15:50:55.179Z,5.53
2023-03-10T15:53:58.809Z,7.18
2023-03-10T15:57:00.365Z,6.18
2023-03-10T16:00:01.890Z,7.70
2023-03-10T16:03:03.459Z,3.55
2023-03-10T16:06:05.659Z,5.05
2023-03-10T16:09:09.021Z,3.47
2023-03-10T16:12:10.637Z,7.22
2023-03-10T16:15:23.702Z,9.88
2023-03-10T16:18:25.213Z,6.28
2023-03-10T16:21:27.830Z,10.30
2023-03-10T16:24:29.314Z,8.48
2023-03-10T16:27:30.891Z,8.48
2023-03-10T16:30:34.884Z,7.93
2023-03-10T16:33:36.557Z,8.70
2023-03-10T16:36:38.042Z,6.38
2023-03-10T16:39:39.504Z,11.93
2023-03-10T16:42:45.270Z,11.18
2023-03-10T16:45:48.870Z,12.00
2023-03-10T16:48:50.432Z,13.50
2023-03-10T16:51:51.973Z,8.35
2023-03-10T16:54:57.301Z,8.88
2023-03-10T16:57:58.889Z,11.20
2023-03-10T17:01:01.007Z,10.48
2023-03-10T17:04:02.570Z,10.75
2023-03-10T17:07:04.059Z,6.93
2023-03-10T17:10:06.072Z,7.20
2023-03-10T17:13:07.541Z,5.75
2023-03-10T17:16:12.589Z,8.77
2023-03-10T17:19:19.463Z,8.32
2023-03-10T17:22:21.070Z,7.90
2023-03-10T17:25:22.686Z,9.90
2023-03-10T17:28:24.435Z,9.52
2023-03-10T17:31:27.518Z,8.50
2023-03-10T17:34:29.344Z,11.13
2023-03-10T17:37:30.842Z,9.85
2023-03-10T17:40:33.743Z,9.23
2023-03-10T17:43:35.225Z,8.95
2023-03-10T17:46:36.968Z,8.63
2023-03-10T17:49:38.623Z,7.88
2023-03-10T17:52:40.108Z,9.43
2023-03-10T17:55:41.704Z,16.40
2023-03-10T17:58:43.608Z,10.93
2023-03-10T18:01:45.869Z,7.32
2023-03-10T18:04:48.574Z,10.30
2023-03-10T18:07:53.533Z,8.35
2023-03-10T18:11:03.685Z,13.05
2023-03-10T18:14:05.991Z,5.53
2023-03-10T18:17:07.481Z,7.13
2023-03-10T18:20:13.741Z,9.82
2023-03-10T18:23:17.327Z,15.25
2023-03-10T18:26:30.274Z,9.63
2023-03-10T18:29:31.741Z,9.60
2023-03-10T18:32:34.159Z,9.93
2023-03-10T18:35:39.691Z,8.70
2023-03-10T18:38:41.298Z,7.82
2023-03-10T18:41:42.841Z,9.15
2023-03-10T18:44:46.434Z,11.68
2023-03-10T18:47:48.123Z,10.82
2023-03-10T18:50:49.646Z,7.90
2023-03-10T18:53:51.663Z,10.38
2023-03-10T18:56:53.225Z,8.65
2023-03-10T18:59:54.687Z,13.32
2023-03-10T19:02:56.269Z,11.02
2023-03-10T19:05:58.200Z,7.03
2023-03-10T19:09:01.319Z,9.73
2023-03-10T19:12:02.838Z,12.05
2023-03-10T19:15:08.807Z,9.88
2023-03-10T19:18:10.440Z,6.05
2023-03-10T19:21:13.024Z,4.32
2023-03-10T19:24:14.512Z,5.18
2023-03-10T19:27:16.052Z,7.00
2023-03-10T19:30:22.352Z,5.40
2023-03-10T19:33:23.925Z,6.90
2023-03-10T19:36:26.567Z,5.80
2023-03-10T19:39:28.066Z,7.40
2023-03-10T19:42:29.545Z,6.40
2023-03-10T19:45:31.096Z,4.70
2023-03-10T19:48:32.824Z,5.18
2023-03-10T19:51:34.452Z,4.50
2023-03-10T19:54:36.125Z,5.18
2023-03-10T19:57:37.644Z,5.13
2023-03-10T20:00:39.158Z,4.72
2023-03-10T20:03:40.863Z,2.83
2023-03-10T20:06:42.381Z,4.47
2023-03-10T20:09:43.922Z,3.38
2023-03-10T20:12:47.005Z,3.20
2023-03-10T20:15:48.482Z,3.25
2023-03-10T20:18:50.235Z,4.55
2023-03-10T20:21:52.168Z,3.22
2023-03-10T20:24:53.715Z,2.28
2023-03-10T20:27:55.214Z,3.97
2023-03-10T20:30:56.690Z,2.80
2023-03-10T20:33:58.234Z,2.60
2023-03-10T20:36:59.686Z,2.30
2023-03-10T20:40:02.802Z,3.38
2023-03-10T20:43:05.320Z,2.80
2023-03-10T20:46:07.762Z,4.05
2023-03-10T20:49:10.043Z,2.45
2023-03-10T20:52:11.977Z,2.22
2023-03-10T20:55:22.961Z,4.13
2023-03-10T20:58:24.509Z,1.95
2023-03-10T21:01:27.208Z,3.38
2023-03-10T21:04:28.879Z,1.77
2023-03-10T21:07:30.466Z,2.30
2023-03-10T21:10:32.155Z,2.85
2023-03-10T21:13:33.598Z,2.42
2023-03-10T21:16:41.408Z,3.30
2023-03-10T21:19:42.931Z,1.80
2023-03-10T21:22:44.576Z,2.67
2023-03-10T21:25:46.125Z,3.97
2023-03-10T21:28:48.176Z,4.05
2023-03-10T21:31:49.587Z,2.88
2023-03-10T21:34:51.100Z,3.45
2023-03-10T21:37:52.671Z,3.15
2023-03-10T21:40:54.673Z,3.45
2023-03-10T21:43:58.477Z,2.97
2023-03-10T21:47:00.221Z,2.80
2023-03-10T21:50:02.046Z,3.25
2023-03-10T21:53:04.898Z,4.13
2023-03-10T21:56:07.291Z,3.20
2023-03-10T21:59:08.791Z,3.72
2023-03-10T22:02:25.260Z,3.47
2023-03-10T22:05:26.782Z,4.43
2023-03-10T22:08:28.240Z,6.35
2023-03-10T22:11:29.833Z,3.45
2023-03-10T22:14:31.402Z,2.80
2023-03-10T22:17:33.538Z,3.47
2023-03-10T22:20:35.213Z,3.10
2023-03-10T22:23:36.722Z,3.25
2023-03-10T22:26:38.219Z,2.70
2023-03-10T22:29:39.836Z,4.93
2023-03-10T22:32:41.795Z,3.72
2023-03-10T22:35:45.165Z,3.28
2023-03-10T22:38:46.637Z,3.17
2023-03-10T22:41:48.147Z,2.50
2023-03-10T22:44:49.612Z,3.75
2023-03-10T22:47:54.051Z,4.78
2023-03-10T22:50:55.530Z,4.07
2023-03-10T22:53:57.009Z,3.13
2023-03-10T22:56:58.641Z,3.03
2023-03-10T23:00:00.098Z,3.60
2023-03-10T23:03:02.328Z,2.83
2023-03-10T23:06:05.905Z,2.70
2023-03-10T23:09:10.643Z,3.75
2023-03-10T23:12:12.218Z,3.00
2023-03-10T23:15:24.861Z,5.18
2023-03-10T23:18:26.919Z,3.20
2023-03-10T23:21:28.467Z,3.92
2023-03-10T23:24:29.922Z,4.07
2023-03-10T23:27:31.381Z,4.10
2023-03-10T23:30:34.693Z,4.93
2023-03-10T23:33:36.203Z,3.27
2023-03-10T23:36:37.698Z,3.63
2023-03-10T23:39:39.205Z,3.97
2023-03-10T23:42:42.545Z,3.22
2023-03-10T23:45:44.668Z,3.40
2023-03-10T23:48:46.181Z,3.65
2023-03-10T23:51:48.901Z,3.65
2023-03-10T23:54:50.345Z,4.07
2023-03-10T23:57:51.811Z,3.67
